createdAt,value
2018-12-22T00:00:01.778Z,10.73
2018-12-22T00:05:09.084Z,10.82
2018-12-22T00:10:14.704Z,10.78
2018-12-22T00:15:19.608Z,10.68
2018-12-22T00:20:24.467Z,10.63
2018-12-22T00:25:29.964Z,10.71
2018-12-22T00:30:34.901Z,10.72
2018-12-22T00:35:39.923Z,10.57
2018-12-22T00:40:45.273Z,10.67
2018-12-22T00:45:50.261Z,10.57
2018-12-22T00:50:55.186Z,10.57
2018-12-22T00:56:00.216Z,10.44
2018-12-22T01:01:05.322Z,10.37
2018-12-22T01:06:10.465Z,10.21
2018-12-22T01:11:16.321Z,10.16
2018-12-22T01:16:21.596Z,10.40
2018-12-22T01:21:26.603Z,10.30
2018-12-22T01:26:32.011Z,10.34
2018-12-22T01:31:37.094Z,10.27
2018-12-22T01:36:41.933Z,10.28
2018-12-22T01:41:49.512Z,10.39
2018-12-22T01:46:54.447Z,10.29
2018-12-22T01:51:59.567Z,10.36
2018-12-22T01:57:04.708Z,10.39
2018-12-22T02:02:09.992Z,10.36
2018-12-22T02:07:14.806Z,10.47
2018-12-22T02:12:19.639Z,10.43
2018-12-22T02:17:24.537Z,10.51
2018-12-22T02:22:29.397Z,10.55
2018-12-22T02:27:34.244Z,10.57
2018-12-22T02:32:39.315Z,10.61
2018-12-22T02:37:44.231Z,10.60
2018-12-22T02:42:49.089Z,10.66
2018-12-22T02:47:54.206Z,10.58
2018-12-22T02:52:59.548Z,10.55
2018-12-22T02:58:04.496Z,10.48
2018-12-22T03:03:09.255Z,10.61
2018-12-22T03:08:14.085Z,10.60
2018-12-22T03:13:19.119Z,10.55
2018-12-22T03:18:23.923Z,10.59
2018-12-22T03:23:28.789Z,10.60
2018-12-22T03:28:33.878Z,10.54
2018-12-22T03:33:38.667Z,10.73
2018-12-22T03:38:43.846Z,10.63
2018-12-22T03:43:48.800Z,10.67
2018-12-22T03:48:53.593Z,10.58
2018-12-22T03:53:58.459Z,10.42
2018-12-22T03:59:03.711Z,10.28
2018-12-22T04:04:10.365Z,10.09
2018-12-22T04:09:15.674Z,9.78
2018-12-22T04:14:20.475Z,9.69
2018-12-22T04:19:25.398Z,9.43
2018-12-22T04:24:30.579Z,9.56
2018-12-22T04:29:35.434Z,9.23
2018-12-22T04:34:40.651Z,9.09
2018-12-22T04:39:45.644Z,9.08
2018-12-22T04:44:50.778Z,9.12
2018-12-22T04:49:55.990Z,9.00
2018-12-22T04:55:01.003Z,9.14
2018-12-22T05:00:07.631Z,8.83
2018-12-22T05:05:12.783Z,9.07
2018-12-22T05:10:18.248Z,8.96
2018-12-22T05:15:24.377Z,8.85
2018-12-22T05:20:29.324Z,8.92
2018-12-22T05:25:34.266Z,8.72
2018-12-22T05:30:39.226Z,8.78
2018-12-22T05:35:44.415Z,8.62
2018-12-22T05:40:49.534Z,8.56
2018-12-22T05:45:54.719Z,8.53
2018-12-22T05:51:00.816Z,8.68
2018-12-22T05:56:06.427Z,8.58
2018-12-22T06:01:11.376Z,8.41
2018-12-22T06:06:16.585Z,8.44
2018-12-22T06:11:21.397Z,8.48
2018-12-22T06:16:26.201Z,8.54
2018-12-22T06:21:30.964Z,8.55
2018-12-22T06:26:35.841Z,8.51
2018-12-22T06:31:40.646Z,8.27
2018-12-22T06:36:45.633Z,8.34
2018-12-22T06:41:50.564Z,8.61
2018-12-22T06:46:55.406Z,8.29
2018-12-22T06:52:00.241Z,8.52
2018-12-22T07:02:15.873Z,8.44
2018-12-22T07:07:21.699Z,8.28
2018-12-22T07:12:26.531Z,8.60
2018-12-22T07:17:31.512Z,8.54
2018-12-22T07:22:36.445Z,8.52
2018-12-22T07:27:41.749Z,8.58
2018-12-22T07:32:47.375Z,8.53
2018-12-22T07:37:52.134Z,8.56
2018-12-22T07:42:56.944Z,8.52
2018-12-22T07:48:03.435Z,8.61
2018-12-22T07:53:08.444Z,8.57
2018-12-22T07:58:13.400Z,8.64
2018-12-22T08:03:18.339Z,8.67
2018-12-22T08:08:23.758Z,8.70
2018-12-22T08:13:29.105Z,8.53
2018-12-22T08:18:34.031Z,8.89
2018-12-22T08:23:38.875Z,8.97
2018-12-22T08:28:43.714Z,8.85
2018-12-22T08:33:48.712Z,9.02
2018-12-22T08:38:53.765Z,8.82
2018-12-22T08:43:59.782Z,8.54
2018-12-22T08:49:05.836Z,8.69
2018-12-22T08:54:10.742Z,8.99
2018-12-22T08:59:16.570Z,8.83
2018-12-22T09:04:22.144Z,9.02
2018-12-22T09:09:27.313Z,9.03
2018-12-22T09:14:32.419Z,9.08
2018-12-22T09:19:37.271Z,9.24
2018-12-22T09:24:42.060Z,9.17
2018-12-22T09:29:47.037Z,9.15
2018-12-22T09:34:51.916Z,8.89
2018-12-22T09:39:57.036Z,8.95
2018-12-22T09:45:05.731Z,9.44
2018-12-22T09:50:13.946Z,9.47
2018-12-22T09:55:18.878Z,9.53
2018-12-22T10:00:24.336Z,9.73
2018-12-22T10:05:29.357Z,9.97
2018-12-22T10:10:34.363Z,9.97
2018-12-22T10:15:39.457Z,10.24
2018-12-22T10:20:45.086Z,10.52
2018-12-22T10:25:50.142Z,10.64
2018-12-22T10:30:55.001Z,10.75
2018-12-22T10:35:59.999Z,10.43
2018-12-22T10:41:05.479Z,9.21
2018-12-22T10:46:11.443Z,8.97
2018-12-22T10:51:24.297Z,8.94
2018-12-22T10:56:27.964Z,8.98
2018-12-22T11:04:52.156Z,8.22
2018-12-22T11:09:57.015Z,8.11
2018-12-22T11:15:02.926Z,8.48
2018-12-22T11:20:08.972Z,7.95
2018-12-22T11:25:20.041Z,8.13
2018-12-22T11:30:27.646Z,7.41
2018-12-22T11:35:32.892Z,7.30
2018-12-22T11:40:38.330Z,7.33
2018-12-22T11:45:43.194Z,7.78
2018-12-22T11:50:48.131Z,7.59
2018-12-22T11:55:53.753Z,7.63
2018-12-22T12:00:58.613Z,7.20
2018-12-22T12:06:04.328Z,7.46
2018-12-22T12:11:09.772Z,7.17
2018-12-22T12:16:40.361Z,7.25
2018-12-22T12:21:45.965Z,7.38
2018-12-22T12:26:50.882Z,7.33
2018-12-22T12:31:56.325Z,7.32
2018-12-22T12:37:02.628Z,7.53
2018-12-22T12:42:07.558Z,7.34
2018-12-22T12:47:13.558Z,6.79
2018-12-22T12:52:19.011Z,6.73
2018-12-22T12:57:24.699Z,6.69
2018-12-22T13:02:30.196Z,6.10
2018-12-22T13:07:35.717Z,6.29
2018-12-22T13:12:55.123Z,6.42
2018-12-22T13:18:00.071Z,6.49
2018-12-22T13:23:06.544Z,6.68
2018-12-22T13:28:12.303Z,6.60
2018-12-22T13:33:17.449Z,6.72
2018-12-22T13:38:22.993Z,6.58
2018-12-22T13:43:28.021Z,6.65
2018-12-22T13:48:32.894Z,6.40
2018-12-22T13:58:55.095Z,6.37
2018-12-22T14:04:00.251Z,6.62
2018-12-22T14:09:07.610Z,6.50
2018-12-22T14:14:18.284Z,6.61
2018-12-22T14:19:23.650Z,6.69
2018-12-22T14:24:35.967Z,6.66
2018-12-22T14:29:40.828Z,6.53
2018-12-22T14:34:54.962Z,6.61
2018-12-22T14:39:59.788Z,6.32
2018-12-22T14:45:06.812Z,6.59
2018-12-22T14:50:12.930Z,6.51
2018-12-22T14:55:18.159Z,6.43
2018-12-22T15:00:23.520Z,6.51
2018-12-22T15:05:30.400Z,6.34
2018-12-22T15:10:36.196Z,5.90
2018-12-22T15:15:41.109Z,6.24
2018-12-22T15:20:46.400Z,6.05
2018-12-22T15:25:51.634Z,6.33
2018-12-22T15:30:56.958Z,6.07
2018-12-22T15:36:02.381Z,6.23
2018-12-22T15:41:07.773Z,6.17
2018-12-22T15:46:13.601Z,6.20
2018-12-22T15:51:18.571Z,6.33
2018-12-22T15:56:23.648Z,6.16
2018-12-22T16:01:28.747Z,6.36
2018-12-22T16:06:34.007Z,6.19
2018-12-22T16:11:39.468Z,6.18
2018-12-22T16:16:44.525Z,6.24
2018-12-22T16:21:49.652Z,6.42
2018-12-22T16:26:54.887Z,6.17
2018-12-22T16:31:59.972Z,6.32
2018-12-22T16:37:06.836Z,6.13
2018-12-22T16:42:11.806Z,6.28
2018-12-22T16:47:17.055Z,6.31
2018-12-22T16:52:22.410Z,6.45
2018-12-22T16:57:28.587Z,6.36
2018-12-22T17:02:58.544Z,6.47
2018-12-22T17:08:05.813Z,6.62
2018-12-22T17:13:12.733Z,6.30
2018-12-22T17:18:18.352Z,6.53
2018-12-22T17:23:33.149Z,6.35
2018-12-22T17:28:38.105Z,6.39
2018-12-22T17:33:43.576Z,6.52
2018-12-22T17:38:48.603Z,6.58
2018-12-22T17:43:55.202Z,6.41
2018-12-22T17:49:00.871Z,6.51
2018-12-22T17:54:07.023Z,6.77
2018-12-22T17:59:12.992Z,6.74
2018-12-22T18:04:17.925Z,6.92
2018-12-22T18:09:23.050Z,6.78
2018-12-22T18:14:28.099Z,6.50
2018-12-22T18:19:35.488Z,6.42
2018-12-22T18:24:40.599Z,6.46
2018-12-22T18:29:45.888Z,6.72
2018-12-22T18:34:50.849Z,6.31
2018-12-22T18:39:56.090Z,6.56
2018-12-22T18:45:00.998Z,6.53
2018-12-22T18:50:12.968Z,6.89
2018-12-22T18:55:18.902Z,7.00
2018-12-22T19:00:25.014Z,7.08
2018-12-22T19:05:29.973Z,7.09
2018-12-22T19:10:39.631Z,7.05
2018-12-22T19:15:47.980Z,7.00
2018-12-22T19:20:54.820Z,6.92
2018-12-22T19:25:59.823Z,6.78
2018-12-22T19:31:06.142Z,6.78
2018-12-22T19:36:11.649Z,6.95
2018-12-22T19:41:18.714Z,6.68
2018-12-22T19:46:23.981Z,6.86
2018-12-22T19:51:29.834Z,6.89
2018-12-22T19:56:35.266Z,6.92
2018-12-22T20:01:40.211Z,7.04
2018-12-22T20:06:45.229Z,6.99
2018-12-22T20:11:50.302Z,6.90
2018-12-22T20:16:56.201Z,7.08
2018-12-22T20:22:01.441Z,7.04
2018-12-22T20:27:07.525Z,7.26
2018-12-22T20:32:13.598Z,7.23
2018-12-22T20:37:19.247Z,7.22
2018-12-22T20:42:24.925Z,6.98
2018-12-22T20:47:30.910Z,7.02
2018-12-22T20:52:37.516Z,7.22
2018-12-22T20:57:43.708Z,6.98
2018-12-22T21:02:49.159Z,6.95
2018-12-22T21:07:55.278Z,7.13
2018-12-22T21:13:01.162Z,7.08
2018-12-22T21:18:07.159Z,7.11
2018-12-22T21:23:13.170Z,7.18
2018-12-22T21:28:19.362Z,7.15
2018-12-22T21:33:25.261Z,7.27
2018-12-22T21:38:30.274Z,7.18
2018-12-22T21:43:36.085Z,7.29
2018-12-22T21:53:52.303Z,7.19
2018-12-22T21:58:57.457Z,7.22
2018-12-22T22:04:03.425Z,7.13
2018-12-22T22:09:08.624Z,7.24
2018-12-22T22:14:20.107Z,7.27
2018-12-22T22:19:25.224Z,7.12
2018-12-22T22:24:30.628Z,7.19
2018-12-22T22:29:36.197Z,7.35
2018-12-22T22:34:45.610Z,7.37
2018-12-22T22:39:48.824Z,7.32
2018-12-22T22:44:53.791Z,7.35
2018-12-22T22:49:59.472Z,7.21
2018-12-22T22:55:07.043Z,7.39
2018-12-22T23:00:42.996Z,7.42
2018-12-22T23:05:47.883Z,7.47
2018-12-22T23:10:52.899Z,7.31
2018-12-22T23:15:58.561Z,7.43
2018-12-22T23:21:04.655Z,7.38
2018-12-22T23:26:09.920Z,7.33
2018-12-22T23:31:14.820Z,7.44
2018-12-22T23:36:19.844Z,7.43
2018-12-22T23:41:25.046Z,7.47
2018-12-22T23:46:29.893Z,7.48
2018-12-22T23:57:08.246Z,7.47
